createdAt,value
2023-05-24T00:01:04.611Z,3.92
2023-05-24T00:03:34.912Z,4.20
2023-05-24T00:06:02.630Z,4.43
2023-05-24T00:08:30.138Z,3.92
2023-05-24T00:10:57.477Z,4.43
2023-05-24T00:13:26.904Z,4.10
2023-05-24T00:15:54.355Z,4.55
2023-05-24T00:18:21.714Z,4.32
2023-05-24T00:20:49.226Z,3.92
2023-05-24T00:23:16.661Z,4.20
2023-05-24T00:25:44.012Z,4.25
2023-05-24T00:28:11.668Z,4.55
2023-05-24T00:30:40.532Z,4.57
2023-05-24T00:33:08.067Z,4.63
2023-05-24T00:35:35.426Z,4.78
2023-05-24T00:38:02.950Z,4.40
2023-05-24T00:40:30.318Z,4.32
2023-05-24T00:42:57.636Z,4.55
2023-05-24T00:45:24.981Z,4.18
2023-05-24T00:47:53.717Z,4.47
2023-05-24T00:50:21.841Z,4.88
2023-05-24T00:52:50.474Z,3.78
2023-05-24T00:55:17.885Z,4.32
2023-05-24T00:57:45.263Z,4.40
2023-05-24T01:00:13.383Z,4.28
2023-05-24T01:02:40.961Z,4.53
2023-05-24T01:05:13.494Z,4.47
2023-05-24T01:07:46.702Z,4.40
2023-05-24T01:10:17.794Z,4.53
2023-05-24T01:12:50.293Z,3.70
2023-05-24T01:15:22.670Z,4.40
2023-05-24T01:17:55.633Z,4.80
2023-05-24T01:20:24.979Z,4.40
2023-05-24T01:23:07.308Z,5.25
2023-05-24T01:25:47.374Z,4.57
2023-05-24T01:28:17.284Z,4.63
2023-05-24T01:30:45.039Z,5.10
2023-05-24T01:33:12.784Z,4.85
2023-05-24T01:35:42.193Z,5.03
2023-05-24T01:38:10.811Z,4.38
2023-05-24T01:40:38.717Z,4.15
2023-05-24T01:43:08.924Z,5.10
2023-05-24T01:45:40.538Z,4.75
2023-05-24T01:48:18.689Z,3.85
2023-05-24T01:50:47.496Z,4.15
2023-05-24T01:53:16.433Z,4.15
2023-05-24T01:55:44.710Z,4.35
2023-05-24T01:58:12.349Z,4.15
2023-05-24T02:00:41.808Z,4.45
2023-05-24T02:03:09.559Z,4.85
2023-05-24T02:05:37.602Z,3.92
2023-05-24T02:08:05.028Z,5.13
2023-05-24T02:10:32.387Z,5.32
2023-05-24T02:12:59.805Z,4.53
2023-05-24T02:15:30.325Z,4.97
2023-05-24T02:18:01.406Z,5.00
2023-05-24T02:20:31.015Z,4.82
2023-05-24T02:22:58.766Z,5.15
2023-05-24T02:25:26.716Z,4.50
2023-05-24T02:27:54.174Z,4.45
2023-05-24T02:30:21.536Z,5.07
2023-05-24T02:32:48.897Z,4.88
2023-05-24T02:35:17.613Z,5.00
2023-05-24T02:37:44.985Z,5.57
2023-05-24T02:40:12.910Z,4.20
2023-05-24T02:42:40.271Z,5.22
2023-05-24T02:45:08.418Z,5.18
2023-05-24T02:47:35.842Z,4.88
2023-05-24T02:50:03.221Z,4.72
2023-05-24T02:52:33.008Z,5.03
2023-05-24T02:55:00.317Z,4.60
2023-05-24T02:57:28.695Z,4.50
2023-05-24T02:59:56.742Z,5.07
2023-05-24T03:02:25.309Z,4.75
2023-05-24T03:04:52.714Z,4.85
2023-05-24T03:07:20.046Z,4.97
2023-05-24T03:09:48.802Z,4.82
2023-05-24T03:12:16.210Z,5.32
2023-05-24T03:14:43.542Z,5.35
2023-05-24T03:17:10.956Z,5.25
2023-05-24T03:19:38.351Z,5.10
2023-05-24T03:22:06.104Z,4.93
2023-05-24T03:24:34.226Z,4.85
2023-05-24T03:27:03.471Z,6.40
2023-05-24T03:29:30.857Z,5.07
2023-05-24T03:31:58.287Z,4.75
2023-05-24T03:34:25.834Z,5.50
2023-05-24T03:36:53.157Z,5.05
2023-05-24T03:39:20.487Z,5.15
2023-05-24T03:41:47.825Z,4.53
2023-05-24T03:44:16.530Z,6.55
2023-05-24T03:46:43.874Z,6.18
2023-05-24T03:49:11.212Z,5.22
2023-05-24T03:51:38.570Z,5.70
2023-05-24T03:54:06.120Z,5.30
2023-05-24T03:56:33.443Z,6.00
2023-05-24T03:59:03.844Z,5.97
2023-05-24T04:01:34.498Z,5.38
2023-05-24T04:04:02.531Z,6.10
2023-05-24T04:06:30.108Z,7.75
2023-05-24T04:08:57.913Z,5.90
2023-05-24T04:11:28.068Z,6.18
2023-05-24T04:13:56.740Z,5.80
2023-05-24T04:16:26.177Z,5.35
2023-05-24T04:18:55.409Z,7.57
2023-05-24T04:21:23.501Z,6.00
2023-05-24T04:23:50.947Z,6.43
2023-05-24T04:26:18.618Z,6.43
2023-05-24T04:28:46.677Z,6.45
2023-05-24T04:31:15.498Z,7.00
2023-05-24T04:33:42.886Z,6.97
2023-05-24T04:36:13.264Z,7.55
2023-05-24T04:38:41.088Z,6.88
2023-05-24T04:41:08.495Z,6.68
2023-05-24T04:43:35.976Z,7.13
2023-05-24T04:46:03.320Z,6.93
2023-05-24T04:48:30.994Z,5.85
2023-05-24T04:50:58.927Z,5.30
2023-05-24T04:53:27.596Z,5.78
2023-05-24T04:55:55.086Z,5.65
2023-05-24T04:58:22.451Z,6.00
2023-05-24T05:00:49.825Z,5.03
2023-05-24T05:03:17.406Z,5.28
2023-05-24T05:05:45.123Z,5.30
2023-05-24T05:08:12.497Z,4.93
2023-05-24T05:10:41.390Z,5.30
2023-05-24T05:13:08.992Z,5.55
2023-05-24T05:15:36.353Z,5.47
2023-05-24T05:18:03.811Z,5.20
2023-05-24T05:20:31.290Z,5.20
2023-05-24T05:22:58.629Z,5.10
2023-05-24T05:25:26.189Z,5.60
2023-05-24T05:27:54.877Z,5.20
2023-05-24T05:30:22.309Z,5.28
2023-05-24T05:32:49.773Z,4.78
2023-05-24T05:35:17.225Z,4.72
2023-05-24T05:37:44.584Z,4.55
2023-05-24T05:40:12.565Z,5.18
2023-05-24T05:42:39.889Z,5.13
2023-05-24T05:45:09.369Z,5.25
2023-05-24T05:47:37.019Z,5.30
2023-05-24T05:50:04.502Z,6.07
2023-05-24T05:52:31.816Z,4.70
2023-05-24T05:54:59.253Z,6.70
2023-05-24T05:57:26.577Z,6.03
2023-05-24T05:59:53.950Z,7.07
2023-05-24T06:02:23.448Z,6.55
2023-05-24T06:04:51.151Z,7.00
2023-05-24T06:07:18.566Z,5.88
2023-05-24T06:09:45.878Z,6.63
2023-05-24T06:12:13.224Z,5.68
2023-05-24T06:14:40.583Z,6.10
2023-05-24T06:17:08.010Z,6.97
2023-05-24T06:19:36.686Z,5.93
2023-05-24T06:22:04.147Z,6.57
2023-05-24T06:24:34.155Z,6.43
2023-05-24T06:27:03.270Z,6.35
2023-05-24T06:29:32.126Z,6.13
2023-05-24T06:31:59.699Z,6.78
2023-05-24T06:34:27.286Z,6.03
2023-05-24T06:36:56.358Z,6.05
2023-05-24T06:39:25.145Z,6.65
2023-05-24T06:41:53.679Z,5.90
2023-05-24T06:44:25.126Z,6.07
2023-05-24T06:46:52.707Z,6.63
2023-05-24T06:49:20.159Z,5.72
2023-05-24T06:51:50.619Z,6.10
2023-05-24T06:54:19.412Z,6.15
2023-05-24T06:56:46.970Z,6.30
2023-05-24T06:59:14.418Z,5.93
2023-05-24T07:01:42.917Z,5.93
2023-05-24T07:04:10.488Z,5.28
2023-05-24T07:06:39.271Z,5.80
2023-05-24T07:09:06.740Z,5.32
2023-05-24T07:11:35.494Z,6.90
2023-05-24T07:14:02.920Z,5.80
2023-05-24T07:16:30.391Z,6.03
2023-05-24T07:18:58.208Z,5.10
2023-05-24T07:21:25.684Z,6.45
2023-05-24T07:23:53.169Z,7.43
2023-05-24T07:26:20.569Z,7.38
2023-05-24T07:28:49.273Z,7.35
2023-05-24T07:31:17.168Z,8.15
2023-05-24T07:33:44.545Z,7.70
2023-05-24T07:36:11.838Z,8.77
2023-05-24T07:38:39.210Z,7.65
2023-05-24T07:41:07.692Z,9.45
2023-05-24T07:43:35.027Z,8.43
2023-05-24T07:46:03.742Z,8.70
2023-05-24T07:48:31.111Z,9.68
2023-05-24T07:50:58.451Z,8.98
2023-05-24T07:53:25.793Z,8.82
2023-05-24T07:55:53.129Z,9.70
2023-05-24T07:58:20.471Z,10.85
2023-05-24T08:00:47.837Z,9.18
2023-05-24T08:03:17.690Z,8.10
2023-05-24T08:05:45.389Z,8.75
2023-05-24T08:08:13.020Z,8.30
2023-05-24T08:10:40.502Z,9.68
2023-05-24T08:13:07.976Z,8.93
2023-05-24T08:15:35.326Z,9.52
2023-05-24T08:18:03.352Z,9.10
2023-05-24T08:20:36.019Z,9.93
2023-05-24T08:23:03.513Z,9.52
2023-05-24T08:25:31.014Z,10.05
2023-05-24T08:27:58.557Z,10.07
2023-05-24T08:30:25.974Z,9.93
2023-05-24T08:32:53.381Z,10.45
2023-05-24T08:35:22.134Z,9.27
2023-05-24T08:37:51.026Z,8.57
2023-05-24T08:40:18.406Z,8.73
2023-05-24T08:42:46.261Z,8.70
2023-05-24T08:45:14.406Z,7.05
2023-05-24T08:47:42.234Z,8.43
2023-05-24T08:50:09.787Z,9.13
2023-05-24T08:52:37.412Z,7.78
2023-05-24T08:55:06.463Z,7.72
2023-05-24T08:57:34.615Z,8.27
2023-05-24T09:00:02.022Z,7.93
2023-05-24T09:02:30.964Z,7.88
2023-05-24T09:04:59.421Z,8.55
2023-05-24T09:07:27.133Z,7.43
2023-05-24T09:09:57.985Z,8.15
2023-05-24T09:12:36.542Z,7.13
2023-05-24T09:15:06.859Z,7.05
2023-05-24T09:17:35.170Z,6.45
2023-05-24T09:20:02.827Z,6.93
2023-05-24T09:22:30.817Z,7.57
2023-05-24T09:24:59.668Z,6.25
2023-05-24T09:27:28.501Z,7.10
2023-05-24T09:29:56.193Z,7.05
2023-05-24T09:32:24.527Z,6.50
2023-05-24T09:34:52.611Z,7.22
2023-05-24T09:37:22.791Z,6.90
2023-05-24T09:39:53.013Z,6.88
2023-05-24T09:42:24.198Z,6.05
2023-05-24T09:44:59.375Z,6.05
2023-05-24T09:47:29.474Z,5.75
2023-05-24T09:49:56.882Z,6.00
2023-05-24T09:52:24.240Z,6.07
2023-05-24T09:54:51.977Z,6.85
2023-05-24T09:57:19.333Z,6.53
2023-05-24T09:59:47.226Z,6.75
2023-05-24T10:02:18.345Z,5.50
2023-05-24T10:04:45.775Z,6.03
2023-05-24T10:07:13.549Z,5.20
2023-05-24T10:09:41.314Z,4.93
2023-05-24T10:12:09.039Z,5.82
2023-05-24T10:14:37.008Z,5.07
2023-05-24T10:17:05.369Z,5.15
2023-05-24T10:19:34.131Z,5.25
2023-05-24T10:22:04.308Z,5.22
2023-05-24T10:24:34.435Z,4.95
2023-05-24T10:27:03.770Z,5.75
2023-05-24T10:29:37.674Z,6.10
2023-05-24T10:32:05.425Z,5.72
2023-05-24T10:34:34.304Z,6.22
2023-05-24T10:37:01.828Z,5.30
2023-05-24T10:39:29.315Z,5.35
2023-05-24T10:41:57.018Z,5.70
2023-05-24T10:44:29.526Z,4.80
2023-05-24T10:47:03.282Z,5.93
2023-05-24T10:49:31.217Z,5.03
2023-05-24T10:52:03.496Z,4.75
2023-05-24T10:54:30.976Z,4.78
2023-05-24T10:57:03.284Z,4.80
2023-05-24T10:59:34.574Z,5.13
2023-05-24T11:02:02.199Z,4.95
2023-05-24T11:04:34.050Z,5.65
2023-05-24T11:07:06.572Z,4.45
2023-05-24T11:09:34.206Z,5.30
2023-05-24T11:12:03.896Z,5.05
2023-05-24T11:14:32.092Z,5.63
2023-05-24T11:17:00.929Z,5.78
2023-05-24T11:19:32.551Z,4.65
2023-05-24T11:22:00.497Z,4.97
2023-05-24T11:24:30.087Z,4.63
2023-05-24T11:26:58.011Z,4.30
2023-05-24T11:29:25.534Z,5.20
2023-05-24T11:31:54.052Z,4.43
2023-05-24T11:34:21.868Z,5.55
2023-05-24T11:36:49.924Z,4.57
2023-05-24T11:39:17.939Z,4.55
2023-05-24T11:41:48.353Z,5.10
2023-05-24T11:44:18.459Z,4.82
2023-05-24T11:46:45.819Z,4.65
2023-05-24T11:49:13.994Z,4.70
2023-05-24T11:51:41.569Z,4.57
2023-05-24T11:54:08.960Z,4.78
2023-05-24T11:56:36.367Z,5.20
2023-05-24T11:59:12.755Z,4.95
2023-05-24T12:01:40.744Z,5.03
2023-05-24T12:04:09.697Z,4.38
2023-05-24T12:06:37.834Z,4.55
2023-05-24T12:09:08.309Z,4.70
2023-05-24T12:11:36.085Z,4.95
2023-05-24T12:14:03.463Z,5.13
2023-05-24T12:16:33.256Z,5.22
2023-05-24T12:19:06.930Z,5.60
2023-05-24T12:21:41.698Z,5.72
2023-05-24T12:24:10.105Z,5.43
2023-05-24T12:26:37.940Z,5.50
2023-05-24T12:29:05.803Z,6.13
2023-05-24T12:31:35.348Z,5.60
2023-05-24T12:34:03.831Z,5.40
2023-05-24T12:36:31.210Z,6.38
2023-05-24T12:38:59.235Z,6.13
2023-05-24T12:41:27.679Z,6.35
2023-05-24T12:43:55.022Z,6.43
2023-05-24T12:46:22.460Z,5.18
2023-05-24T12:48:51.456Z,6.05
2023-05-24T12:51:18.847Z,5.55
2023-05-24T12:53:46.304Z,6.45
2023-05-24T12:56:13.713Z,5.80
2023-05-24T12:58:41.207Z,5.95
2023-05-24T13:01:08.606Z,6.00
2023-05-24T13:03:39.424Z,6.68
2023-05-24T13:06:08.584Z,5.70
2023-05-24T13:08:37.535Z,5.25
2023-05-24T13:11:06.783Z,5.55
2023-05-24T13:13:35.322Z,4.95
2023-05-24T13:16:02.748Z,5.82
2023-05-24T13:18:30.305Z,6.82
2023-05-24T13:21:00.257Z,5.40
2023-05-24T13:23:29.018Z,6.13
2023-05-24T13:25:57.270Z,7.63
2023-05-24T13:28:24.641Z,7.45
2023-05-24T13:30:52.063Z,6.43
2023-05-24T13:33:19.418Z,6.32
2023-05-24T13:35:46.781Z,6.32
2023-05-24T13:38:14.153Z,7.90
2023-05-24T13:40:43.424Z,8.52
2023-05-24T13:43:11.024Z,6.90
2023-05-24T13:45:38.406Z,7.45
2023-05-24T13:48:05.868Z,7.88
2023-05-24T13:50:34.009Z,7.93
2023-05-24T13:53:02.063Z,7.88
2023-05-24T13:55:29.713Z,8.70
2023-05-24T13:57:58.494Z,8.27
2023-05-24T14:00:26.050Z,10.32
2023-05-24T14:02:53.637Z,9.43
2023-05-24T14:05:26.565Z,9.45
2023-05-24T14:07:54.692Z,10.55
2023-05-24T14:10:22.348Z,10.65
2023-05-24T14:13:03.381Z,10.75
2023-05-24T14:15:38.350Z,10.43
2023-05-24T14:18:08.098Z,9.15
2023-05-24T14:20:36.738Z,9.45
2023-05-24T14:23:04.343Z,9.10
2023-05-24T14:25:31.898Z,9.05
2023-05-24T14:27:59.573Z,8.32
2023-05-24T14:30:27.010Z,8.65
2023-05-24T14:32:55.804Z,7.18
2023-05-24T14:35:23.180Z,8.00
2023-05-24T14:37:50.584Z,7.38
2023-05-24T14:40:19.961Z,7.40
2023-05-24T14:42:47.693Z,7.80
2023-05-24T14:45:15.200Z,6.35
2023-05-24T14:47:42.614Z,7.25
2023-05-24T14:50:11.775Z,7.30
2023-05-24T14:52:39.192Z,7.47
2023-05-24T14:55:07.164Z,6.38
2023-05-24T14:57:34.495Z,7.75
2023-05-24T15:00:03.182Z,7.20
2023-05-24T15:02:31.019Z,7.55
2023-05-24T15:04:58.659Z,7.30
2023-05-24T15:07:27.487Z,7.07
2023-05-24T15:09:54.870Z,6.40
2023-05-24T15:12:22.852Z,6.35
2023-05-24T15:14:50.221Z,6.22
2023-05-24T15:17:19.002Z,5.97
2023-05-24T15:19:48.325Z,5.55
2023-05-24T15:22:15.704Z,6.53
2023-05-24T15:24:44.389Z,5.57
2023-05-24T15:27:12.114Z,5.45
2023-05-24T15:29:39.462Z,5.78
2023-05-24T15:32:07.212Z,6.25
2023-05-24T15:34:34.567Z,5.25
2023-05-24T15:37:01.904Z,5.10
2023-05-24T15:39:29.273Z,5.35
2023-05-24T15:41:58.245Z,5.80
2023-05-24T15:44:25.656Z,4.93
2023-05-24T15:46:53.111Z,5.32
2023-05-24T15:49:20.531Z,4.93
2023-05-24T15:52:03.924Z,4.65
2023-05-24T15:54:32.283Z,5.10
2023-05-24T15:57:01.756Z,4.57
2023-05-24T15:59:29.221Z,4.38
2023-05-24T16:01:56.807Z,4.97
2023-05-24T16:04:24.298Z,5.00
2023-05-24T16:06:51.683Z,5.20
2023-05-24T16:09:19.047Z,5.25
2023-05-24T16:11:47.661Z,5.45
2023-05-24T16:14:16.664Z,4.75
2023-05-24T16:16:44.410Z,5.68
2023-05-24T16:19:11.890Z,4.80
2023-05-24T16:21:39.296Z,5.22
2023-05-24T16:24:06.805Z,5.18
2023-05-24T16:26:34.348Z,4.70
2023-05-24T16:29:02.216Z,4.45
2023-05-24T16:31:31.957Z,5.03
2023-05-24T16:34:00.768Z,4.47
2023-05-24T16:36:28.147Z,4.97
2023-05-24T16:38:55.531Z,5.40
2023-05-24T16:41:22.951Z,4.47
2023-05-24T16:43:50.314Z,5.40
2023-05-24T16:46:19.142Z,4.47
2023-05-24T16:48:47.977Z,4.90
2023-05-24T16:51:16.419Z,4.80
2023-05-24T16:53:43.761Z,4.93
2023-05-24T16:56:11.127Z,5.22
2023-05-24T16:58:38.489Z,5.07
2023-05-24T17:01:05.933Z,5.60
2023-05-24T17:03:34.273Z,5.70
2023-05-24T17:06:05.100Z,5.15
2023-05-24T17:08:34.222Z,5.45
2023-05-24T17:11:01.580Z,5.28
2023-05-24T17:13:28.995Z,4.47
2023-05-24T17:15:56.920Z,4.38
2023-05-24T17:18:28.759Z,5.03
2023-05-24T17:20:58.224Z,4.63
2023-05-24T17:23:27.218Z,4.53
2023-05-24T17:25:55.353Z,4.60
2023-05-24T17:28:27.076Z,5.75
2023-05-24T17:30:54.460Z,5.18
2023-05-24T17:33:22.703Z,5.32
2023-05-24T17:35:50.310Z,5.47
2023-05-24T17:38:17.859Z,5.70
2023-05-24T17:40:46.796Z,5.50
2023-05-24T17:43:14.103Z,5.63
2023-05-24T17:45:41.631Z,6.05
2023-05-24T17:48:09.085Z,6.05
2023-05-24T17:50:36.542Z,5.93
2023-05-24T17:53:04.037Z,6.10
2023-05-24T17:55:31.513Z,5.35
2023-05-24T17:58:00.220Z,5.38
2023-05-24T18:00:27.931Z,6.15
2023-05-24T18:02:55.332Z,5.63
2023-05-24T18:05:22.843Z,6.43
2023-05-24T18:07:50.267Z,5.47
2023-05-24T18:10:17.677Z,6.25
2023-05-24T18:12:45.034Z,6.13
2023-05-24T18:15:13.872Z,5.63
2023-05-24T18:17:41.498Z,6.70
2023-05-24T18:20:09.192Z,6.65
2023-05-24T18:22:36.689Z,6.38
2023-05-24T18:25:04.137Z,6.90
2023-05-24T18:27:31.496Z,6.57
2023-05-24T18:29:59.193Z,6.97
2023-05-24T18:32:27.998Z,6.80
2023-05-24T18:34:56.849Z,7.10
2023-05-24T18:37:24.225Z,7.78
2023-05-24T18:39:51.556Z,7.95
2023-05-24T18:42:18.915Z,8.00
2023-05-24T18:44:46.275Z,7.75
2023-05-24T18:47:13.659Z,7.13
2023-05-24T18:49:42.394Z,7.15
2023-05-24T18:52:09.768Z,7.05
2023-05-24T18:54:37.619Z,6.90
2023-05-24T18:57:05.491Z,6.88
2023-05-24T18:59:34.382Z,6.65
2023-05-24T19:02:01.996Z,6.97
2023-05-24T19:04:29.576Z,7.57
2023-05-24T19:06:58.350Z,6.50
2023-05-24T19:09:25.798Z,7.43
2023-05-24T19:11:53.221Z,7.88
2023-05-24T19:14:21.952Z,7.85
2023-05-24T19:16:49.368Z,6.93
2023-05-24T19:19:17.013Z,7.28
2023-05-24T19:21:44.385Z,7.47
2023-05-24T19:24:13.063Z,7.40
2023-05-24T19:26:40.418Z,7.88
2023-05-24T19:29:07.804Z,7.70
2023-05-24T19:31:36.174Z,7.05
2023-05-24T19:34:03.544Z,6.78
2023-05-24T19:36:32.625Z,5.95
2023-05-24T19:39:00.023Z,5.57
2023-05-24T19:41:28.701Z,5.32
2023-05-24T19:43:58.319Z,5.35
2023-05-24T19:46:26.058Z,6.00
2023-05-24T19:48:53.469Z,5.90
2023-05-24T19:51:20.885Z,5.32
2023-05-24T19:53:48.342Z,5.35
2023-05-24T19:56:15.710Z,5.45
2023-05-24T19:58:44.655Z,5.93
2023-05-24T20:01:12.034Z,6.30
2023-05-24T20:03:39.655Z,6.15
2023-05-24T20:06:07.345Z,6.90
2023-05-24T20:08:35.735Z,5.78
2023-05-24T20:11:03.710Z,5.93
2023-05-24T20:13:31.043Z,6.45
2023-05-24T20:15:59.718Z,7.78
2023-05-24T20:18:27.083Z,7.82
2023-05-24T20:20:55.031Z,6.63
2023-05-24T20:23:27.120Z,7.55
2023-05-24T20:25:55.308Z,7.93
2023-05-24T20:28:30.142Z,7.60
2023-05-24T20:30:59.830Z,7.88
2023-05-24T20:33:27.183Z,7.95
2023-05-24T20:35:54.825Z,7.60
2023-05-24T20:38:23.014Z,7.13
2023-05-24T20:40:50.390Z,8.50
2023-05-24T20:43:17.761Z,7.70
2023-05-24T20:45:45.244Z,7.82
2023-05-24T20:48:14.325Z,7.82
2023-05-24T20:50:41.917Z,7.90
2023-05-24T20:53:09.259Z,8.35
2023-05-24T20:55:36.605Z,8.48
2023-05-24T20:58:04.029Z,8.35
2023-05-24T21:00:31.376Z,7.82
2023-05-24T21:02:58.805Z,8.32
2023-05-24T21:05:27.546Z,8.00
2023-05-24T21:07:54.904Z,9.05
2023-05-24T21:10:22.778Z,8.90
2023-05-24T21:12:50.135Z,9.75
2023-05-24T21:15:17.549Z,10.45
2023-05-24T21:17:44.984Z,11.15
2023-05-24T21:20:12.683Z,10.48
2023-05-24T21:22:41.544Z,10.07
2023-05-24T21:25:09.487Z,9.98
2023-05-24T21:27:36.933Z,10.23
2023-05-24T21:30:04.624Z,9.85
2023-05-24T21:32:31.963Z,10.23
2023-05-24T21:34:59.341Z,9.68
2023-05-24T21:37:26.705Z,10.00
2023-05-24T21:39:55.503Z,9.38
2023-05-24T21:42:22.880Z,9.30
2023-05-24T21:44:50.269Z,9.85
2023-05-24T21:47:17.610Z,9.45
2023-05-24T21:49:45.335Z,9.50
2023-05-24T21:52:12.676Z,9.98
2023-05-24T21:54:39.998Z,9.35
2023-05-24T21:57:08.717Z,9.57
2023-05-24T21:59:36.096Z,8.73
2023-05-24T22:02:03.567Z,9.30
2023-05-24T22:04:30.925Z,9.70
2023-05-24T22:06:58.311Z,9.68
2023-05-24T22:09:25.707Z,9.63
2023-05-24T22:11:53.163Z,9.40
2023-05-24T22:14:21.904Z,9.82
2023-05-24T22:16:49.541Z,9.43
2023-05-24T22:19:25.308Z,9.18
2023-05-24T22:21:59.692Z,9.68
2023-05-24T22:24:27.269Z,10.45
2023-05-24T22:26:55.814Z,9.98
2023-05-24T22:29:24.512Z,10.18
2023-05-24T22:31:51.878Z,10.13
2023-05-24T22:34:26.001Z,9.30
2023-05-24T22:36:53.353Z,9.32
2023-05-24T22:39:20.717Z,9.63
2023-05-24T22:41:48.158Z,10.23
2023-05-24T22:44:15.678Z,10.32
2023-05-24T22:46:44.495Z,10.57
2023-05-24T22:49:14.333Z,10.27
2023-05-24T22:51:43.925Z,10.52
2023-05-24T22:54:11.804Z,9.93
2023-05-24T22:56:39.296Z,9.68
2023-05-24T22:59:07.082Z,10.93
2023-05-24T23:01:34.721Z,10.32
2023-05-24T23:04:18.925Z,10.27
2023-05-24T23:06:48.765Z,10.60
2023-05-24T23:09:17.464Z,10.27
2023-05-24T23:11:46.062Z,10.65
2023-05-24T23:14:14.063Z,10.80
2023-05-24T23:16:45.227Z,10.93
2023-05-24T23:19:18.157Z,10.77
2023-05-24T23:21:45.862Z,11.13
2023-05-24T23:24:14.697Z,11.80
2023-05-24T23:26:42.468Z,11.35
2023-05-24T23:29:10.023Z,11.30
2023-05-24T23:31:37.504Z,12.35
2023-05-24T23:34:05.025Z,11.45
2023-05-24T23:36:33.753Z,11.00
2023-05-24T23:39:01.095Z,11.25
2023-05-24T23:41:28.406Z,11.70
2023-05-24T23:43:55.793Z,10.77
2023-05-24T23:46:23.271Z,11.50
2023-05-24T23:48:50.698Z,12.27
2023-05-24T23:51:19.410Z,12.48
2023-05-24T23:53:48.090Z,11.75
2023-05-24T23:56:15.505Z,11.75
2023-05-24T23:58:43.769Z,11.30
